Melstone, Montana
Current Conditions -  °F | °C
As of 10:35 AM on Friday 21 Nov 2014 (Local Time) from KMVH Reporting Station
Clear Clear  
Wind Chill: 41°   Ceiling: Unl
Heat Index: 46°   Visibility: 10mi
Dew Point: 21°   Wind: 13mph
Humidity: 37%   Direction: 290°WNW
Pressure: 29.8"   Gusts: NA
Location:  46.6°N, 107.87°W
Report Text: KMVH 211735Z AUTO 29011KT 10SM CLR 08/M06 A2980 RMK A01
Loading
Personal Weather Stations






























Interactive Weather Map New forecast layout! Learn more

10-Day Weather Forecast

Advertisements
Track Severe Weather on mobile